sensor_id;sensor_type;location;lat;lon;timestamp;P1;durP1;ratioP1;P2;durP2;ratioP2
40555;SDS011;26250;45.422;11.100;2023-08-06T08:13:39;8.43;;;5.43;;
40555;SDS011;26250;45.422;11.100;2023-08-06T08:16:06;8.10;;;6.47;;
40555;SDS011;26250;45.422;11.100;2023-08-06T08:18:33;12.95;;;6.00;;
40555;SDS011;26250;45.422;11.100;2023-08-06T08:21:00;6.47;;;5.32;;
40555;SDS011;26250;45.422;11.100;2023-08-06T08:23:27;6.07;;;5.18;;
40555;SDS011;26250;45.422;11.100;2023-08-06T08:25:54;6.22;;;4.95;;
40555;SDS011;26250;45.422;11.100;2023-08-06T08:28:21;7.93;;;4.57;;
40555;SDS011;26250;45.422;11.100;2023-08-06T08:30:48;5.97;;;4.45;;
40555;SDS011;26250;45.422;11.100;2023-08-06T08:33:15;10.00;;;4.53;;
40555;SDS011;26250;45.422;11.100;2023-08-06T08:35:42;5.50;;;4.32;;
40555;SDS011;26250;45.422;11.100;2023-08-06T08:38:09;8.27;;;4.18;;
40555;SDS011;26250;45.422;11.100;2023-08-06T08:40:37;5.72;;;4.53;;
40555;SDS011;26250;45.422;11.100;2023-08-06T08:43:15;7.10;;;3.33;;
40555;SDS011;26250;45.422;11.100;2023-08-06T08:45:43;5.22;;;3.58;;
40555;SDS011;26250;45.422;11.100;2023-08-06T08:48:12;11.18;;;3.53;;
40555;SDS011;26250;45.422;11.100;2023-08-06T08:50:40;5.53;;;2.78;;
40555;SDS011;26250;45.422;11.100;2023-08-06T08:53:10;2.83;;;2.58;;
40555;SDS011;26250;45.422;11.100;2023-08-06T08:55:38;3.60;;;2.55;;
40555;SDS011;26250;45.422;11.100;2023-08-06T08:58:06;7.53;;;2.72;;
40555;SDS011;26250;45.422;11.100;2023-08-06T09:00:33;3.38;;;2.17;;
40555;SDS011;26250;45.422;11.100;2023-08-06T09:03:01;13.88;;;2.90;;
40555;SDS011;26250;45.422;11.100;2023-08-06T09:05:32;3.45;;;2.53;;
40555;SDS011;26250;45.422;11.100;2023-08-06T09:08:02;3.25;;;2.53;;
40555;SDS011;26250;45.422;11.100;2023-08-06T09:10:30;2.45;;;2.25;;
40555;SDS011;26250;45.422;11.100;2023-08-06T09:12:58;7.43;;;2.40;;
40555;SDS011;26250;45.422;11.100;2023-08-06T09:15:28;4.70;;;1.70;;
40555;SDS011;26250;45.422;11.100;2023-08-06T09:17:56;1.60;;;1.35;;
40555;SDS011;26250;45.422;11.100;2023-08-06T09:20:23;3.20;;;1.25;;
40555;SDS011;26250;45.422;11.100;2023-08-06T09:22:52;1.88;;;1.65;;
40555;SDS011;26250;45.422;11.100;2023-08-06T09:25:23;3.70;;;1.52;;
40555;SDS011;26250;45.422;11.100;2023-08-06T09:27:51;1.50;;;1.35;;
40555;SDS011;26250;45.422;11.100;2023-08-06T09:30:28;2.10;;;1.80;;
40555;SDS011;26250;45.422;11.100;2023-08-06T09:33:00;2.17;;;1.48;;
40555;SDS011;26250;45.422;11.100;2023-08-06T09:35:28;1.60;;;1.50;;
40555;SDS011;26250;45.422;11.100;2023-08-06T09:38:06;5.93;;;1.95;;
40555;SDS011;26250;45.422;11.100;2023-08-06T09:40:35;2.40;;;1.95;;
40555;SDS011;26250;45.422;11.100;2023-08-06T09:43:02;10.82;;;2.15;;
40555;SDS011;26250;45.422;11.100;2023-08-06T09:45:32;4.47;;;2.00;;
40555;SDS011;26250;45.422;11.100;2023-08-06T09:48:04;3.25;;;1.60;;
40555;SDS011;26250;45.422;11.100;2023-08-06T09:50:33;6.70;;;1.97;;
40555;SDS011;26250;45.422;11.100;2023-08-06T09:53:07;4.20;;;1.67;;
40555;SDS011;26250;45.422;11.100;2023-08-06T09:55:36;4.07;;;1.63;;
40555;SDS011;26250;45.422;11.100;2023-08-06T09:58:04;2.22;;;1.60;;
40555;SDS011;26250;45.422;11.100;2023-08-06T10:00:31;1.60;;;1.50;;
40555;SDS011;26250;45.422;11.100;2023-08-06T10:03:05;9.40;;;2.13;;
40555;SDS011;26250;45.422;11.100;2023-08-06T10:05:34;1.75;;;1.63;;
40555;SDS011;26250;45.422;11.100;2023-08-06T10:08:02;2.05;;;1.38;;
40555;SDS011;26250;45.422;11.100;2023-08-06T10:10:31;3.70;;;1.67;;
40555;SDS011;26250;45.422;11.100;2023-08-06T10:12:58;6.05;;;1.70;;
40555;SDS011;26250;45.422;11.100;2023-08-06T10:15:28;1.92;;;1.63;;
40555;SDS011;26250;45.422;11.100;2023-08-06T10:17:57;2.47;;;1.95;;
40555;SDS011;26250;45.422;11.100;2023-08-06T10:20:32;2.65;;;1.38;;
40555;SDS011;26250;45.422;11.100;2023-08-06T10:23:03;3.33;;;2.17;;
40555;SDS011;26250;45.422;11.100;2023-08-06T10:25:32;2.47;;;1.85;;
40555;SDS011;26250;45.422;11.100;2023-08-06T10:28:07;2.63;;;1.80;;
40555;SDS011;26250;45.422;11.100;2023-08-06T10:30:41;5.65;;;2.00;;
40555;SDS011;26250;45.422;11.100;2023-08-06T10:33:10;3.97;;;1.85;;
40555;SDS011;26250;45.422;11.100;2023-08-06T10:35:46;2.95;;;1.75;;
40555;SDS011;26250;45.422;11.100;2023-08-06T10:38:21;1.70;;;1.38;;
40555;SDS011;26250;45.422;11.100;2023-08-06T10:45:53;2.80;;;1.60;;
40555;SDS011;26250;45.422;11.100;2023-08-06T10:51:12;2.22;;;1.80;;
40555;SDS011;26250;45.422;11.100;2023-08-06T10:53:41;2.35;;;1.50;;
40555;SDS011;26250;45.422;11.100;2023-08-06T10:56:13;13.27;;;1.75;;
40555;SDS011;26250;45.422;11.100;2023-08-06T10:58:42;1.93;;;1.50;;
40555;SDS011;26250;45.422;11.100;2023-08-06T11:01:10;1.80;;;1.60;;
40555;SDS011;26250;45.422;11.100;2023-08-06T11:03:37;2.03;;;1.63;;
40555;SDS011;26250;45.422;11.100;2023-08-06T11:06:08;3.40;;;2.20;;
40555;SDS011;26250;45.422;11.100;2023-08-06T11:08:37;3.05;;;1.58;;
40555;SDS011;26250;45.422;11.100;2023-08-06T11:11:07;3.42;;;1.77;;
40555;SDS011;26250;45.422;11.100;2023-08-06T11:13:37;2.55;;;1.58;;
40555;SDS011;26250;45.422;11.100;2023-08-06T11:16:07;2.88;;;1.75;;
40555;SDS011;26250;45.422;11.100;2023-08-06T11:18:35;2.08;;;1.67;;
40555;SDS011;26250;45.422;11.100;2023-08-06T11:21:02;3.50;;;1.67;;
40555;SDS011;26250;45.422;11.100;2023-08-06T11:23:29;2.28;;;1.77;;
40555;SDS011;26250;45.422;11.100;2023-08-06T11:25:57;3.45;;;2.17;;
40555;SDS011;26250;45.422;11.100;2023-08-06T11:28:24;3.67;;;1.80;;
40555;SDS011;26250;45.422;11.100;2023-08-06T11:30:52;3.35;;;2.40;;
40555;SDS011;26250;45.422;11.100;2023-08-06T11:33:23;4.72;;;2.15;;
40555;SDS011;26250;45.422;11.100;2023-08-06T11:35:52;4.97;;;2.67;;
40555;SDS011;26250;45.422;11.100;2023-08-06T11:38:20;4.18;;;2.20;;
40555;SDS011;26250;45.422;11.100;2023-08-06T11:40:47;9.00;;;2.53;;
40555;SDS011;26250;45.422;11.100;2023-08-06T11:43:14;3.20;;;2.60;;
40555;SDS011;26250;45.422;11.100;2023-08-06T11:45:41;4.05;;;2.35;;
40555;SDS011;26250;45.422;11.100;2023-08-06T11:48:09;3.65;;;2.15;;
40555;SDS011;26250;45.422;11.100;2023-08-06T11:50:37;2.20;;;1.90;;
40555;SDS011;26250;45.422;11.100;2023-08-06T11:53:07;2.22;;;1.50;;
40555;SDS011;26250;45.422;11.100;2023-08-06T11:55:38;3.42;;;1.60;;
40555;SDS011;26250;45.422;11.100;2023-08-06T11:58:05;1.60;;;1.50;;
40555;SDS011;26250;45.422;11.100;2023-08-06T12:00:32;9.18;;;1.80;;
40555;SDS011;26250;45.422;11.100;2023-08-06T12:03:00;2.55;;;1.75;;
40555;SDS011;26250;45.422;11.100;2023-08-06T12:05:31;2.08;;;1.55;;
40555;SDS011;26250;45.422;11.100;2023-08-06T12:08:02;2.58;;;1.33;;
40555;SDS011;26250;45.422;11.100;2023-08-06T12:10:31;8.00;;;1.67;;
40555;SDS011;26250;45.422;11.100;2023-08-06T12:12:59;1.73;;;1.40;;
40555;SDS011;26250;45.422;11.100;2023-08-06T12:15:26;1.88;;;1.30;;
40555;SDS011;26250;45.422;11.100;2023-08-06T12:17:55;1.60;;;1.10;;
40555;SDS011;26250;45.422;11.100;2023-08-06T12:20:22;1.10;;;0.93;;
40555;SDS011;26250;45.422;11.100;2023-08-06T12:22:49;2.40;;;1.60;;
40555;SDS011;26250;45.422;11.100;2023-08-06T12:25:18;1.70;;;1.10;;
40555;SDS011;26250;45.422;11.100;2023-08-06T12:27:45;2.90;;;1.17;;
40555;SDS011;26250;45.422;11.100;2023-08-06T12:30:12;0.82;;;0.52;;
40555;SDS011;26250;45.422;11.100;2023-08-06T12:32:40;4.45;;;0.82;;
40555;SDS011;26250;45.422;11.100;2023-08-06T12:35:07;0.80;;;0.70;;
40555;SDS011;26250;45.422;11.100;2023-08-06T12:37:34;1.92;;;0.77;;
40555;SDS011;26250;45.422;11.100;2023-08-06T12:40:05;0.75;;;0.52;;
40555;SDS011;26250;45.422;11.100;2023-08-06T12:42:53;4.35;;;1.00;;
40555;SDS011;26250;45.422;11.100;2023-08-06T12:45:20;1.20;;;0.70;;
40555;SDS011;26250;45.422;11.100;2023-08-06T12:47:48;0.60;;;0.60;;
40555;SDS011;26250;45.422;11.100;2023-08-06T12:50:16;0.73;;;0.65;;
40555;SDS011;26250;45.422;11.100;2023-08-06T12:52:45;2.58;;;0.60;;
40555;SDS011;26250;45.422;11.100;2023-08-06T12:55:12;1.50;;;0.80;;
40555;SDS011;26250;45.422;11.100;2023-08-06T12:57:39;0.75;;;0.60;;
40555;SDS011;26250;45.422;11.100;2023-08-06T13:00:24;0.73;;;0.60;;
40555;SDS011;26250;45.422;11.100;2023-08-06T13:02:54;0.73;;;0.60;;
40555;SDS011;26250;45.422;11.100;2023-08-06T13:05:21;1.85;;;0.70;;
40555;SDS011;26250;45.422;11.100;2023-08-06T13:07:48;2.88;;;0.77;;
40555;SDS011;26250;45.422;11.100;2023-08-06T13:10:18;0.57;;;0.57;;
40555;SDS011;26250;45.422;11.100;2023-08-06T13:12:45;1.08;;;0.70;;
40555;SDS011;26250;45.422;11.100;2023-08-06T13:15:12;0.93;;;0.60;;
40555;SDS011;26250;45.422;11.100;2023-08-06T13:17:41;0.85;;;0.60;;
40555;SDS011;26250;45.422;11.100;2023-08-06T13:20:08;1.10;;;0.80;;
40555;SDS011;26250;45.422;11.100;2023-08-06T13:22:35;0.50;;;0.50;;
40555;SDS011;26250;45.422;11.100;2023-08-06T13:25:02;0.60;;;0.52;;
40555;SDS011;26250;45.422;11.100;2023-08-06T13:27:29;0.93;;;0.68;;
40555;SDS011;26250;45.422;11.100;2023-08-06T13:29:56;1.15;;;0.65;;
40555;SDS011;26250;45.422;11.100;2023-08-06T13:32:23;1.17;;;0.63;;
40555;SDS011;26250;45.422;11.100;2023-08-06T13:34:50;0.75;;;0.70;;
40555;SDS011;26250;45.422;11.100;2023-08-06T13:37:17;0.50;;;0.50;;
40555;SDS011;26250;45.422;11.100;2023-08-06T13:39:44;1.30;;;0.70;;
40555;SDS011;26250;45.422;11.100;2023-08-06T13:42:11;1.10;;;0.70;;
40555;SDS011;26250;45.422;11.100;2023-08-06T13:44:37;1.58;;;0.63;;
40555;SDS011;26250;45.422;11.100;2023-08-06T13:47:04;0.70;;;0.57;;
40555;SDS011;26250;45.422;11.100;2023-08-06T13:49:31;0.60;;;0.50;;
40555;SDS011;26250;45.422;11.100;2023-08-06T13:51:58;1.10;;;0.90;;
40555;SDS011;26250;45.422;11.100;2023-08-06T13:54:45;2.08;;;0.73;;
40555;SDS011;26250;45.422;11.100;2023-08-06T13:57:12;0.60;;;0.60;;
40555;SDS011;26250;45.422;11.100;2023-08-06T13:59:41;1.38;;;0.60;;
40555;SDS011;26250;45.422;11.100;2023-08-06T14:02:10;0.52;;;0.50;;
40555;SDS011;26250;45.422;11.100;2023-08-06T14:04:38;0.50;;;0.45;;
40555;SDS011;26250;45.422;11.100;2023-08-06T14:07:06;0.73;;;0.73;;
40555;SDS011;26250;45.422;11.100;2023-08-06T14:09:33;1.48;;;0.50;;
40555;SDS011;26250;45.422;11.100;2023-08-06T14:12:00;2.30;;;0.63;;
40555;SDS011;26250;45.422;11.100;2023-08-06T14:14:27;0.60;;;0.60;;
40555;SDS011;26250;45.422;11.100;2023-08-06T14:16:55;0.55;;;0.55;;
40555;SDS011;26250;45.422;11.100;2023-08-06T14:19:23;0.80;;;0.52;;
40555;SDS011;26250;45.422;11.100;2023-08-06T14:21:50;1.33;;;0.60;;
40555;SDS011;26250;45.422;11.100;2023-08-06T14:24:17;0.60;;;0.60;;
40555;SDS011;26250;45.422;11.100;2023-08-06T14:26:44;2.53;;;0.75;;
40555;SDS011;26250;45.422;11.100;2023-08-06T14:29:11;1.00;;;0.90;;
40555;SDS011;26250;45.422;11.100;2023-08-06T14:31:40;0.60;;;0.60;;
40555;SDS011;26250;45.422;11.100;2023-08-06T14:34:07;2.25;;;0.80;;
40555;SDS011;26250;45.422;11.100;2023-08-06T14:36:34;0.80;;;0.70;;
40555;SDS011;26250;45.422;11.100;2023-08-06T14:39:01;0.82;;;0.70;;
40555;SDS011;26250;45.422;11.100;2023-08-06T14:41:28;1.75;;;0.80;;
40555;SDS011;26250;45.422;11.100;2023-08-06T14:43:55;1.20;;;0.90;;
40555;SDS011;26250;45.422;11.100;2023-08-06T14:46:22;0.50;;;0.50;;
40555;SDS011;26250;45.422;11.100;2023-08-06T14:48:49;1.30;;;0.57;;
40555;SDS011;26250;45.422;11.100;2023-08-06T14:51:16;1.67;;;0.82;;
40555;SDS011;26250;45.422;11.100;2023-08-06T14:53:46;0.88;;;0.70;;
40555;SDS011;26250;45.422;11.100;2023-08-06T14:56:13;2.88;;;0.90;;
40555;SDS011;26250;45.422;11.100;2023-08-06T14:58:41;1.95;;;0.90;;
40555;SDS011;26250;45.422;11.100;2023-08-06T15:01:08;0.70;;;0.70;;
40555;SDS011;26250;45.422;11.100;2023-08-06T15:03:35;0.80;;;0.70;;
40555;SDS011;26250;45.422;11.100;2023-08-06T15:06:02;2.28;;;1.05;;
40555;SDS011;26250;45.422;11.100;2023-08-06T15:08:29;0.60;;;0.60;;
40555;SDS011;26250;45.422;11.100;2023-08-06T15:10:56;0.57;;;0.57;;
40555;SDS011;26250;45.422;11.100;2023-08-06T15:13:23;0.73;;;0.73;;
40555;SDS011;26250;45.422;11.100;2023-08-06T15:15:50;1.00;;;0.90;;
40555;SDS011;26250;45.422;11.100;2023-08-06T15:18:17;1.40;;;0.85;;
40555;SDS011;26250;45.422;11.100;2023-08-06T15:20:45;0.55;;;0.55;;
40555;SDS011;26250;45.422;11.100;2023-08-06T15:23:12;1.50;;;0.80;;
40555;SDS011;26250;45.422;11.100;2023-08-06T15:25:40;0.60;;;0.60;;
40555;SDS011;26250;45.422;11.100;2023-08-06T15:28:07;0.60;;;0.60;;
40555;SDS011;26250;45.422;11.100;2023-08-06T15:30:33;3.15;;;0.93;;
40555;SDS011;26250;45.422;11.100;2023-08-06T15:33:01;2.35;;;0.68;;
40555;SDS011;26250;45.422;11.100;2023-08-06T15:35:29;0.50;;;0.50;;
40555;SDS011;26250;45.422;11.100;2023-08-06T15:37:55;0.68;;;0.65;;
40555;SDS011;26250;45.422;11.100;2023-08-06T15:40:23;3.05;;;0.98;;
40555;SDS011;26250;45.422;11.100;2023-08-06T15:42:49;0.82;;;0.73;;
40555;SDS011;26250;45.422;11.100;2023-08-06T15:45:17;1.02;;;0.75;;
40555;SDS011;26250;45.422;11.100;2023-08-06T15:47:45;1.30;;;0.80;;
40555;SDS011;26250;45.422;11.100;2023-08-06T15:50:12;1.42;;;0.57;;
40555;SDS011;26250;45.422;11.100;2023-08-06T15:52:40;0.98;;;0.60;;
40555;SDS011;26250;45.422;11.100;2023-08-06T15:55:07;0.60;;;0.60;;
40555;SDS011;26250;45.422;11.100;2023-08-06T15:57:34;1.42;;;0.90;;
40555;SDS011;26250;45.422;11.100;2023-08-06T16:00:02;1.85;;;0.82;;
40555;SDS011;26250;45.422;11.100;2023-08-06T16:02:38;4.03;;;0.85;;
40555;SDS011;26250;45.422;11.100;2023-08-06T16:05:05;0.50;;;0.50;;
40555;SDS011;26250;45.422;11.100;2023-08-06T16:07:33;2.97;;;0.93;;
40555;SDS011;26250;45.422;11.100;2023-08-06T16:10:01;0.73;;;0.60;;
40555;SDS011;26250;45.422;11.100;2023-08-06T16:12:28;1.70;;;0.80;;
40555;SDS011;26250;45.422;11.100;2023-08-06T16:14:55;3.40;;;0.85;;
40555;SDS011;26250;45.422;11.100;2023-08-06T16:17:22;0.60;;;0.60;;
40555;SDS011;26250;45.422;11.100;2023-08-06T16:19:50;0.95;;;0.50;;
40555;SDS011;26250;45.422;11.100;2023-08-06T16:22:20;0.95;;;0.73;;
40555;SDS011;26250;45.422;11.100;2023-08-06T16:24:47;1.75;;;0.60;;
40555;SDS011;26250;45.422;11.100;2023-08-06T16:27:15;5.40;;;0.73;;
40555;SDS011;26250;45.422;11.100;2023-08-06T16:29:42;5.15;;;0.70;;
40555;SDS011;26250;45.422;11.100;2023-08-06T16:32:11;1.65;;;0.80;;
40555;SDS011;26250;45.422;11.100;2023-08-06T16:34:38;1.27;;;0.80;;
40555;SDS011;26250;45.422;11.100;2023-08-06T16:37:05;0.95;;;0.82;;
40555;SDS011;26250;45.422;11.100;2023-08-06T16:39:32;1.00;;;0.82;;
40555;SDS011;26250;45.422;11.100;2023-08-06T16:41:59;1.13;;;0.70;;
40555;SDS011;26250;45.422;11.100;2023-08-06T16:44:29;0.68;;;0.68;;
40555;SDS011;26250;45.422;11.100;2023-08-06T16:46:57;4.60;;;1.10;;
40555;SDS011;26250;45.422;11.100;2023-08-06T16:49:25;2.55;;;1.00;;
40555;SDS011;26250;45.422;11.100;2023-08-06T16:51:52;0.95;;;0.75;;
40555;SDS011;26250;45.422;11.100;2023-08-06T16:54:19;2.05;;;1.08;;
40555;SDS011;26250;45.422;11.100;2023-08-06T16:56:46;3.13;;;0.77;;
40555;SDS011;26250;45.422;11.100;2023-08-06T16:59:13;1.00;;;0.80;;
40555;SDS011;26250;45.422;11.100;2023-08-06T17:01:42;1.13;;;0.85;;
40555;SDS011;26250;45.422;11.100;2023-08-06T17:04:09;0.70;;;0.70;;
40555;SDS011;26250;45.422;11.100;2023-08-06T17:06:37;1.08;;;0.88;;
40555;SDS011;26250;45.422;11.100;2023-08-06T17:09:04;0.75;;;0.65;;
40555;SDS011;26250;45.422;11.100;2023-08-06T17:11:32;1.20;;;0.70;;
40555;SDS011;26250;45.422;11.100;2023-08-06T17:13:59;0.98;;;0.80;;
40555;SDS011;26250;45.422;11.100;2023-08-06T17:16:26;0.90;;;0.70;;
40555;SDS011;26250;45.422;11.100;2023-08-06T17:18:53;1.58;;;0.85;;
40555;SDS011;26250;45.422;11.100;2023-08-06T17:21:20;2.20;;;1.00;;
40555;SDS011;26250;45.422;11.100;2023-08-06T17:23:47;1.23;;;1.10;;
40555;SDS011;26250;45.422;11.100;2023-08-06T17:26:14;0.85;;;0.85;;
40555;SDS011;26250;45.422;11.100;2023-08-06T17:28:41;0.63;;;0.63;;
40555;SDS011;26250;45.422;11.100;2023-08-06T17:31:08;0.68;;;0.68;;
40555;SDS011;26250;45.422;11.100;2023-08-06T17:33:37;1.20;;;0.90;;
40555;SDS011;26250;45.422;11.100;2023-08-06T17:36:04;1.20;;;1.10;;
40555;SDS011;26250;45.422;11.100;2023-08-06T17:38:31;8.00;;;2.15;;
40555;SDS011;26250;45.422;11.100;2023-08-06T17:40:58;3.60;;;1.75;;
40555;SDS011;26250;45.422;11.100;2023-08-06T17:43:26;2.38;;;1.02;;
40555;SDS011;26250;45.422;11.100;2023-08-06T17:45:53;1.30;;;1.17;;
40555;SDS011;26250;45.422;11.100;2023-08-06T17:48:22;0.95;;;0.93;;
40555;SDS011;26250;45.422;11.100;2023-08-06T17:50:49;3.45;;;1.30;;
40555;SDS011;26250;45.422;11.100;2023-08-06T17:53:16;4.72;;;1.25;;
40555;SDS011;26250;45.422;11.100;2023-08-06T17:55:43;2.00;;;1.02;;
40555;SDS011;26250;45.422;11.100;2023-08-06T17:58:10;2.05;;;1.05;;
40555;SDS011;26250;45.422;11.100;2023-08-06T18:00:37;0.90;;;0.90;;
40555;SDS011;26250;45.422;11.100;2023-08-06T18:03:04;1.10;;;0.98;;
40555;SDS011;26250;45.422;11.100;2023-08-06T18:05:31;1.25;;;1.15;;
40555;SDS011;26250;45.422;11.100;2023-08-06T18:07:59;1.92;;;1.10;;
40555;SDS011;26250;45.422;11.100;2023-08-06T18:10:26;1.00;;;0.90;;
40555;SDS011;26250;45.422;11.100;2023-08-06T18:12:56;0.70;;;0.70;;
40555;SDS011;26250;45.422;11.100;2023-08-06T18:15:23;1.85;;;0.82;;
40555;SDS011;26250;45.422;11.100;2023-08-06T18:17:50;1.45;;;0.77;;
40555;SDS011;26250;45.422;11.100;2023-08-06T18:20:17;1.00;;;0.98;;
40555;SDS011;26250;45.422;11.100;2023-08-06T18:22:44;1.17;;;1.08;;
40555;SDS011;26250;45.422;11.100;2023-08-06T18:25:11;1.10;;;1.00;;
40555;SDS011;26250;45.422;11.100;2023-08-06T18:27:38;1.13;;;1.00;;
40555;SDS011;26250;45.422;11.100;2023-08-06T18:30:09;0.90;;;0.90;;
40555;SDS011;26250;45.422;11.100;2023-08-06T18:32:39;0.98;;;0.85;;
40555;SDS011;26250;45.422;11.100;2023-08-06T18:35:06;1.50;;;1.08;;
40555;SDS011;26250;45.422;11.100;2023-08-06T18:37:34;6.10;;;1.17;;
40555;SDS011;26250;45.422;11.100;2023-08-06T18:40:03;5.32;;;1.10;;
40555;SDS011;26250;45.422;11.100;2023-08-06T18:42:34;2.97;;;1.95;;
40555;SDS011;26250;45.422;11.100;2023-08-06T18:45:05;2.80;;;2.15;;
40555;SDS011;26250;45.422;11.100;2023-08-06T18:47:33;1.98;;;0.90;;
40555;SDS011;26250;45.422;11.100;2023-08-06T18:50:00;3.55;;;1.60;;
40555;SDS011;26250;45.422;11.100;2023-08-06T18:52:27;1.65;;;1.05;;
40555;SDS011;26250;45.422;11.100;2023-08-06T18:54:54;1.73;;;1.00;;
40555;SDS011;26250;45.422;11.100;2023-08-06T18:57:22;3.90;;;1.15;;
40555;SDS011;26250;45.422;11.100;2023-08-06T18:59:49;1.35;;;1.10;;
40555;SDS011;26250;45.422;11.100;2023-08-06T19:02:18;2.28;;;1.17;;
40555;SDS011;26250;45.422;11.100;2023-08-06T19:04:45;1.10;;;1.00;;
40555;SDS011;26250;45.422;11.100;2023-08-06T19:07:14;1.08;;;1.00;;
40555;SDS011;26250;45.422;11.100;2023-08-06T19:09:41;3.42;;;1.05;;
40555;SDS011;26250;45.422;11.100;2023-08-06T19:12:12;1.02;;;0.93;;
40555;SDS011;26250;45.422;11.100;2023-08-06T19:14:47;3.60;;;1.00;;
40555;SDS011;26250;45.422;11.100;2023-08-06T19:17:20;3.28;;;1.02;;
40555;SDS011;26250;45.422;11.100;2023-08-06T19:19:47;1.08;;;0.68;;
40555;SDS011;26250;45.422;11.100;2023-08-06T19:22:14;8.57;;;0.88;;
40555;SDS011;26250;45.422;11.100;2023-08-06T19:24:41;0.75;;;0.75;;
40555;SDS011;26250;45.422;11.100;2023-08-06T19:27:09;2.25;;;0.68;;
40555;SDS011;26250;45.422;11.100;2023-08-06T19:29:36;2.67;;;1.10;;
40555;SDS011;26250;45.422;11.100;2023-08-06T19:32:03;0.80;;;0.68;;
40555;SDS011;26250;45.422;11.100;2023-08-06T19:34:32;0.75;;;0.75;;
40555;SDS011;26250;45.422;11.100;2023-08-06T19:37:00;0.65;;;0.65;;
40555;SDS011;26250;45.422;11.100;2023-08-06T19:39:27;3.63;;;0.85;;
40555;SDS011;26250;45.422;11.100;2023-08-06T19:41:54;1.75;;;0.50;;
40555;SDS011;26250;45.422;11.100;2023-08-06T19:44:21;4.35;;;1.00;;
40555;SDS011;26250;45.422;11.100;2023-08-06T19:46:48;0.52;;;0.52;;
40555;SDS011;26250;45.422;11.100;2023-08-06T19:49:15;2.72;;;1.00;;
40555;SDS011;26250;45.422;11.100;2023-08-06T19:51:42;0.77;;;0.65;;
40555;SDS011;26250;45.422;11.100;2023-08-06T19:54:10;3.90;;;0.70;;
40555;SDS011;26250;45.422;11.100;2023-08-06T19:56:37;0.80;;;0.80;;
40555;SDS011;26250;45.422;11.100;2023-08-06T19:59:03;2.38;;;0.93;;
40555;SDS011;26250;45.422;11.100;2023-08-06T20:01:30;0.60;;;0.60;;
40555;SDS011;26250;45.422;11.100;2023-08-06T20:03:58;1.10;;;1.00;;
40555;SDS011;26250;45.422;11.100;2023-08-06T20:06:25;1.70;;;0.80;;
40555;SDS011;26250;45.422;11.100;2023-08-06T20:08:56;0.53;;;0.53;;
40555;SDS011;26250;45.422;11.100;2023-08-06T20:11:24;0.80;;;0.80;;
40555;SDS011;26250;45.422;11.100;2023-08-06T20:13:51;6.07;;;0.88;;
40555;SDS011;26250;45.422;11.100;2023-08-06T20:16:18;0.50;;;0.50;;
40555;SDS011;26250;45.422;11.100;2023-08-06T20:18:45;0.75;;;0.70;;
40555;SDS011;26250;45.422;11.100;2023-08-06T20:21:12;5.45;;;0.98;;
40555;SDS011;26250;45.422;11.100;2023-08-06T20:23:40;0.70;;;0.70;;
40555;SDS011;26250;45.422;11.100;2023-08-06T20:26:08;3.40;;;1.05;;
40555;SDS011;26250;45.422;11.100;2023-08-06T20:28:38;1.17;;;0.60;;
40555;SDS011;26250;45.422;11.100;2023-08-06T20:31:05;1.48;;;0.82;;
40555;SDS011;26250;45.422;11.100;2023-08-06T20:33:32;0.95;;;0.75;;
40555;SDS011;26250;45.422;11.100;2023-08-06T20:35:59;5.40;;;0.70;;
40555;SDS011;26250;45.422;11.100;2023-08-06T20:38:26;1.15;;;0.77;;
40555;SDS011;26250;45.422;11.100;2023-08-06T20:40:53;2.15;;;0.93;;
40555;SDS011;26250;45.422;11.100;2023-08-06T20:43:23;1.83;;;0.80;;
40555;SDS011;26250;45.422;11.100;2023-08-06T20:45:54;1.00;;;0.77;;
40555;SDS011;26250;45.422;11.100;2023-08-06T20:48:26;1.95;;;1.00;;
40555;SDS011;26250;45.422;11.100;2023-08-06T20:50:53;3.97;;;1.05;;
40555;SDS011;26250;45.422;11.100;2023-08-06T20:53:20;0.80;;;0.70;;
40555;SDS011;26250;45.422;11.100;2023-08-06T20:56:01;1.42;;;0.93;;
40555;SDS011;26250;45.422;11.100;2023-08-06T20:58:30;3.53;;;1.17;;
40555;SDS011;26250;45.422;11.100;2023-08-06T21:00:58;1.90;;;0.90;;
40555;SDS011;26250;45.422;11.100;2023-08-06T21:03:26;2.35;;;0.90;;
40555;SDS011;26250;45.422;11.100;2023-08-06T21:06:11;2.40;;;0.95;;
40555;SDS011;26250;45.422;11.100;2023-08-06T21:08:42;2.78;;;1.15;;
40555;SDS011;26250;45.422;11.100;2023-08-06T21:11:08;4.80;;;1.00;;
40555;SDS011;26250;45.422;11.100;2023-08-06T21:13:41;1.10;;;0.80;;
40555;SDS011;26250;45.422;11.100;2023-08-06T21:16:09;6.30;;;0.90;;
40555;SDS011;26250;45.422;11.100;2023-08-06T21:18:37;2.08;;;1.00;;
40555;SDS011;26250;45.422;11.100;2023-08-06T21:21:06;7.00;;;1.25;;
40555;SDS011;26250;45.422;11.100;2023-08-06T21:23:33;3.22;;;1.30;;
40555;SDS011;26250;45.422;11.100;2023-08-06T21:26:01;2.08;;;0.90;;
40555;SDS011;26250;45.422;11.100;2023-08-06T21:28:29;9.63;;;1.10;;
40555;SDS011;26250;45.422;11.100;2023-08-06T21:31:15;4.25;;;0.95;;
40555;SDS011;26250;45.422;11.100;2023-08-06T21:33:42;2.97;;;0.93;;
40555;SDS011;26250;45.422;11.100;2023-08-06T21:36:11;1.08;;;0.73;;
40555;SDS011;26250;45.422;11.100;2023-08-06T21:38:39;4.80;;;0.98;;
40555;SDS011;26250;45.422;11.100;2023-08-06T21:41:08;2.75;;;1.10;;
40555;SDS011;26250;45.422;11.100;2023-08-06T21:43:42;2.28;;;0.95;;
40555;SDS011;26250;45.422;11.100;2023-08-06T21:46:11;4.80;;;1.25;;
40555;SDS011;26250;45.422;11.100;2023-08-06T21:48:41;2.17;;;1.45;;
40555;SDS011;26250;45.422;11.100;2023-08-06T21:51:12;1.10;;;1.00;;
40555;SDS011;26250;45.422;11.100;2023-08-06T21:53:40;5.90;;;1.35;;
40555;SDS011;26250;45.422;11.100;2023-08-06T21:56:07;7.93;;;1.35;;
40555;SDS011;26250;45.422;11.100;2023-08-06T22:01:08;1.65;;;1.10;;
40555;SDS011;26250;45.422;11.100;2023-08-06T22:03:37;2.67;;;1.00;;
40555;SDS011;26250;45.422;11.100;2023-08-06T22:06:05;2.13;;;0.93;;
40555;SDS011;26250;45.422;11.100;2023-08-06T22:08:34;2.17;;;0.90;;
40555;SDS011;26250;45.422;11.100;2023-08-06T22:11:01;4.35;;;1.15;;
40555;SDS011;26250;45.422;11.100;2023-08-06T22:13:29;2.60;;;1.13;;
40555;SDS011;26250;45.422;11.100;2023-08-06T22:15:56;6.63;;;1.40;;
40555;SDS011;26250;45.422;11.100;2023-08-06T22:18:24;4.28;;;0.98;;
40555;SDS011;26250;45.422;11.100;2023-08-06T22:20:54;2.17;;;0.90;;
40555;SDS011;26250;45.422;11.100;2023-08-06T22:23:23;3.72;;;1.13;;
40555;SDS011;26250;45.422;11.100;2023-08-06T22:25:50;7.88;;;1.50;;
40555;SDS011;26250;45.422;11.100;2023-08-06T22:28:22;14.00;;;1.40;;
40555;SDS011;26250;45.422;11.100;2023-08-06T22:30:50;4.82;;;0.85;;
40555;SDS011;26250;45.422;11.100;2023-08-06T22:33:17;3.83;;;1.05;;
40555;SDS011;26250;45.422;11.100;2023-08-06T22:35:45;3.20;;;1.30;;
40555;SDS011;26250;45.422;11.100;2023-08-06T22:38:12;4.22;;;1.52;;
40555;SDS011;26250;45.422;11.100;2023-08-06T22:40:39;4.07;;;1.10;;
40555;SDS011;26250;45.422;11.100;2023-08-06T22:43:06;2.60;;;1.25;;
40555;SDS011;26250;45.422;11.100;2023-08-06T22:45:33;7.18;;;0.98;;
40555;SDS011;26250;45.422;11.100;2023-08-06T22:47:59;4.50;;;1.38;;
40555;SDS011;26250;45.422;11.100;2023-08-06T22:50:26;1.02;;;0.80;;
40555;SDS011;26250;45.422;11.100;2023-08-06T22:52:53;1.40;;;0.98;;
40555;SDS011;26250;45.422;11.100;2023-08-06T22:55:21;2.83;;;1.17;;
40555;SDS011;26250;45.422;11.100;2023-08-06T22:58:08;3.78;;;1.10;;
40555;SDS011;26250;45.422;11.100;2023-08-06T23:00:35;4.18;;;0.90;;
40555;SDS011;26250;45.422;11.100;2023-08-06T23:03:02;1.45;;;0.85;;